sensor_id;sensor_type;location;lat;lon;timestamp;pressure;altitude;pressure_sealevel;temperature;humidity
61484;BME280;47349;55.640;37.692;2022-10-16T00:01:45;100435.88;;;4.99;71.13
61484;BME280;47349;55.640;37.692;2022-10-16T00:04:52;100452.16;;;5.06;71.05
61484;BME280;47349;55.640;37.692;2022-10-16T00:08:26;100444.53;;;5.01;71.28
61484;BME280;47349;55.640;37.692;2022-10-16T00:11:39;100474.00;;;5.09;71.39
61484;BME280;47349;55.640;37.692;2022-10-16T00:15:03;100484.66;;;5.09;71.72
61484;BME280;47349;55.640;37.692;2022-10-16T00:18:04;100449.59;;;4.93;71.57
61484;BME280;47349;55.640;37.692;2022-10-16T00:21:31;100464.59;;;4.94;71.96
61484;BME280;47349;55.640;37.692;2022-10-16T00:25:20;100440.44;;;4.75;72.30
61484;BME280;47349;55.640;37.692;2022-10-16T00:29:12;100461.69;;;4.75;72.63
61484;BME280;47349;55.640;37.692;2022-10-16T00:33:39;100469.53;;;4.87;72.23
61484;BME280;47349;55.640;37.692;2022-10-16T00:37:05;100486.22;;;4.89;72.51
61484;BME280;47349;55.640;37.692;2022-10-16T00:40:24;100490.56;;;4.90;72.76
61484;BME280;47349;55.640;37.692;2022-10-16T00:43:47;100482.81;;;4.87;72.86
61484;BME280;47349;55.640;37.692;2022-10-16T00:47:43;100446.81;;;4.50;73.26
61484;BME280;47349;55.640;37.692;2022-10-16T00:51:22;100448.84;;;4.46;73.07
61484;BME280;47349;55.640;37.692;2022-10-16T00:54:34;100483.38;;;4.69;73.49
61484;BME280;47349;55.640;37.692;2022-10-16T00:58:26;100473.59;;;4.58;73.14
61484;BME280;47349;55.640;37.692;2022-10-16T01:01:33;100478.06;;;4.57;73.81
61484;BME280;47349;55.640;37.692;2022-10-16T01:04:35;100467.94;;;4.51;74.07
61484;BME280;47349;55.640;37.692;2022-10-16T01:08:04;100491.84;;;4.62;73.77
61484;BME280;47349;55.640;37.692;2022-10-16T01:15:37;100464.28;;;4.41;73.75
61484;BME280;47349;55.640;37.692;2022-10-16T01:19:04;100510.69;;;4.59;73.81
61484;BME280;47349;55.640;37.692;2022-10-16T01:32:56;100512.31;;;4.49;74.15
61484;BME280;47349;55.640;37.692;2022-10-16T01:36:16;100510.41;;;4.51;74.28
61484;BME280;47349;55.640;37.692;2022-10-16T01:40:00;100494.41;;;4.29;74.13
61484;BME280;47349;55.640;37.692;2022-10-16T01:43:22;100518.22;;;4.42;74.43
61484;BME280;47349;55.640;37.692;2022-10-16T01:46:48;100522.19;;;4.36;74.89
61484;BME280;47349;55.640;37.692;2022-10-16T01:49:57;100518.13;;;4.19;75.14
61484;BME280;47349;55.640;37.692;2022-10-16T01:53:25;100515.88;;;4.26;75.14
61484;BME280;47349;55.640;37.692;2022-10-16T01:56:54;100484.16;;;4.00;75.02
61484;BME280;47349;55.640;37.692;2022-10-16T02:00:09;100516.44;;;4.18;75.48
61484;BME280;47349;55.640;37.692;2022-10-16T02:03:37;100507.59;;;4.06;75.98
61484;BME280;47349;55.640;37.692;2022-10-16T02:06:30;100515.94;;;4.13;75.56
61484;BME280;47349;55.640;37.692;2022-10-16T02:09:54;100503.69;;;3.99;75.82
61484;BME280;47349;55.640;37.692;2022-10-16T02:14:24;100518.09;;;4.08;75.62
61484;BME280;47349;55.640;37.692;2022-10-16T02:17:21;100478.00;;;3.76;76.21
61484;BME280;47349;55.640;37.692;2022-10-16T02:21:22;100532.19;;;4.08;75.93
61484;BME280;47349;55.640;37.692;2022-10-16T02:30:41;100526.59;;;4.00;76.29
61484;BME280;47349;55.640;37.692;2022-10-16T02:33:27;100514.47;;;3.85;76.26
61484;BME280;47349;55.640;37.692;2022-10-16T02:36:38;100508.09;;;3.88;76.40
61484;BME280;47349;55.640;37.692;2022-10-16T02:39:48;100527.91;;;3.95;76.46
61484;BME280;47349;55.640;37.692;2022-10-16T02:42:36;100505.09;;;3.68;76.51
61484;BME280;47349;55.640;37.692;2022-10-16T02:45:23;100529.91;;;3.91;76.58
61484;BME280;47349;55.640;37.692;2022-10-16T02:48:41;100536.66;;;3.84;77.08
61484;BME280;47349;55.640;37.692;2022-10-16T02:53:21;100537.94;;;3.78;77.06
61484;BME280;47349;55.640;37.692;2022-10-16T02:58:06;100509.16;;;3.61;77.07
61484;BME280;47349;55.640;37.692;2022-10-16T03:02:32;100508.75;;;3.54;78.00
61484;BME280;47349;55.640;37.692;2022-10-16T03:06:17;100542.25;;;3.55;78.16
61484;BME280;47349;55.640;37.692;2022-10-16T03:09:29;100505.50;;;3.38;78.45
61484;BME280;47349;55.640;37.692;2022-10-16T03:13:33;100534.16;;;3.57;78.51
61484;BME280;47349;55.640;37.692;2022-10-16T03:17:02;100519.50;;;3.40;78.39
61484;BME280;47349;55.640;37.692;2022-10-16T03:21:43;100526.81;;;3.24;79.23
61484;BME280;47349;55.640;37.692;2022-10-16T03:26:13;100545.34;;;3.37;79.50
61484;BME280;47349;55.640;37.692;2022-10-16T03:30:21;100541.34;;;3.31;79.47
61484;BME280;47349;55.640;37.692;2022-10-16T03:33:14;100551.22;;;3.29;80.17
61484;BME280;47349;55.640;37.692;2022-10-16T03:36:16;100556.63;;;3.15;79.82
61484;BME280;47349;55.640;37.692;2022-10-16T03:39:44;100552.97;;;3.28;80.01
61484;BME280;47349;55.640;37.692;2022-10-16T03:44:26;100558.84;;;3.21;80.11
61484;BME280;47349;55.640;37.692;2022-10-16T06:23:09;100620.09;;;4.87;73.83
61484;BME280;47349;55.640;37.692;2022-10-16T06:26:26;100616.38;;;4.89;73.81
61484;BME280;47349;55.640;37.692;2022-10-16T06:29:31;100608.34;;;4.78;73.22
61484;BME280;47349;55.640;37.692;2022-10-16T06:32:40;100603.66;;;4.93;72.82
61484;BME280;47349;55.640;37.692;2022-10-16T06:35:32;100605.88;;;4.99;73.61
61484;BME280;47349;55.640;37.692;2022-10-16T06:38:39;100578.69;;;4.96;72.75
61484;BME280;47349;55.640;37.692;2022-10-16T06:42:03;100627.41;;;5.19;72.52
61484;BME280;47349;55.640;37.692;2022-10-16T06:44:52;100588.97;;;5.00;72.34
61484;BME280;47349;55.640;37.692;2022-10-16T06:48:36;100628.63;;;5.26;72.08
61484;BME280;47349;55.640;37.692;2022-10-16T06:52:09;100622.59;;;5.46;71.15
61484;BME280;47349;55.640;37.692;2022-10-16T06:55:34;100602.19;;;5.35;71.44
61484;BME280;47349;55.640;37.692;2022-10-16T06:58:32;100577.28;;;5.25;71.01
61484;BME280;47349;55.640;37.692;2022-10-16T07:01:55;100618.03;;;5.48;70.83
61484;BME280;47349;55.640;37.692;2022-10-16T07:05:00;100616.22;;;5.49;70.89
61484;BME280;47349;55.640;37.692;2022-10-16T07:08:41;100638.72;;;5.67;70.75
61484;BME280;47349;55.640;37.692;2022-10-16T07:12:48;100586.00;;;5.38;70.63
61484;BME280;47349;55.640;37.692;2022-10-16T07:16:10;100615.38;;;5.59;70.22
61484;BME280;47349;55.640;37.692;2022-10-16T07:19:18;100614.63;;;5.68;70.34
61484;BME280;47349;55.640;37.692;2022-10-16T07:22:36;100651.88;;;5.91;69.86
61484;BME280;47349;55.640;37.692;2022-10-16T07:25:45;100641.38;;;6.01;69.80
61484;BME280;47349;55.640;37.692;2022-10-16T07:29:19;100620.19;;;6.10;69.78
61484;BME280;47349;55.640;37.692;2022-10-16T07:32:31;100642.16;;;6.24;69.11
61484;BME280;47349;55.640;37.692;2022-10-16T07:35:54;100644.31;;;6.41;68.79
61484;BME280;47349;55.640;37.692;2022-10-16T07:39:23;100623.06;;;6.18;68.76
61484;BME280;47349;55.640;37.692;2022-10-16T07:42:47;100644.53;;;6.49;69.05
61484;BME280;47349;55.640;37.692;2022-10-16T07:45:31;100651.78;;;6.58;68.41
61484;BME280;47349;55.640;37.692;2022-10-16T07:49:01;100611.38;;;6.53;68.24
61484;BME280;47349;55.640;37.692;2022-10-16T07:52:33;100641.75;;;6.83;68.26
61484;BME280;47349;55.640;37.692;2022-10-16T07:56:05;100620.59;;;6.91;68.21
61484;BME280;47349;55.640;37.692;2022-10-16T07:59:03;100635.50;;;7.14;68.16
61484;BME280;47349;55.640;37.692;2022-10-16T08:02:46;100645.16;;;7.27;67.69
61484;BME280;47349;55.640;37.692;2022-10-16T08:06:29;100661.78;;;7.40;67.29
61484;BME280;47349;55.640;37.692;2022-10-16T08:09:39;100629.06;;;7.38;66.87
61484;BME280;47349;55.640;37.692;2022-10-16T08:12:55;100644.31;;;7.57;66.62
61484;BME280;47349;55.640;37.692;2022-10-16T08:16:17;100644.38;;;7.66;66.68
61484;BME280;47349;55.640;37.692;2022-10-16T08:19:23;100641.19;;;7.82;66.94
61484;BME280;47349;55.640;37.692;2022-10-16T08:22:08;100618.03;;;7.83;66.13
61484;BME280;47349;55.640;37.692;2022-10-16T08:24:58;100641.97;;;7.94;65.39
61484;BME280;47349;55.640;37.692;2022-10-16T08:28:21;100638.34;;;8.05;65.12
61484;BME280;47349;55.640;37.692;2022-10-16T08:31:31;100618.38;;;7.99;64.99
61484;BME280;47349;55.640;37.692;2022-10-16T08:34:22;100621.22;;;8.17;65.88
61484;BME280;47349;55.640;37.692;2022-10-16T08:37:32;100643.38;;;8.48;64.28
61484;BME280;47349;55.640;37.692;2022-10-16T08:40:37;100637.47;;;8.64;65.19
61484;BME280;47349;55.640;37.692;2022-10-16T08:47:39;100618.19;;;8.50;63.06
61484;BME280;47349;55.640;37.692;2022-10-16T08:50:32;100634.53;;;8.77;62.86
61484;BME280;47349;55.640;37.692;2022-10-16T08:54:14;100627.38;;;8.77;62.38
61484;BME280;47349;55.640;37.692;2022-10-16T08:57:18;100607.25;;;8.73;62.09
61484;BME280;47349;55.640;37.692;2022-10-16T09:00:59;100609.50;;;8.68;61.88
61484;BME280;47349;55.640;37.692;2022-10-16T09:04:54;100630.03;;;8.77;60.78
61484;BME280;47349;55.640;37.692;2022-10-16T09:11:31;100630.03;;;8.87;61.03
61484;BME280;47349;55.640;37.692;2022-10-16T09:22:27;100574.28;;;9.01;58.59
61484;BME280;47349;55.640;37.692;2022-10-16T09:26:17;100603.22;;;9.25;59.00
61484;BME280;47349;55.640;37.692;2022-10-16T09:30:11;100618.97;;;9.38;57.92
61484;BME280;47349;55.640;37.692;2022-10-16T09:33:36;100582.81;;;9.34;57.88
61484;BME280;47349;55.640;37.692;2022-10-16T09:37:19;100588.66;;;9.47;57.13
61484;BME280;47349;55.640;37.692;2022-10-16T09:41:15;100620.75;;;9.85;56.61
61484;BME280;47349;55.640;37.692;2022-10-16T09:44:40;100621.91;;;9.82;55.59
61484;BME280;47349;55.640;37.692;2022-10-16T09:48:36;100625.00;;;9.87;55.94
61484;BME280;47349;55.640;37.692;2022-10-16T09:52:09;100597.56;;;9.75;55.11
61484;BME280;47349;55.640;37.692;2022-10-16T09:55:54;100610.16;;;9.93;54.82
61484;BME280;47349;55.640;37.692;2022-10-16T09:59:22;100577.94;;;9.85;55.07
61484;BME280;47349;55.640;37.692;2022-10-16T10:03:21;100592.25;;;9.93;54.03
61484;BME280;47349;55.640;37.692;2022-10-16T10:07:42;100578.91;;;10.11;54.18
61484;BME280;47349;55.640;37.692;2022-10-16T10:11:15;100594.34;;;10.27;53.58
61484;BME280;47349;55.640;37.692;2022-10-16T10:15:33;100615.00;;;10.35;53.17
61484;BME280;47349;55.640;37.692;2022-10-16T10:19:10;100589.63;;;10.11;53.44
61484;BME280;47349;55.640;37.692;2022-10-16T10:22:32;100600.00;;;10.24;52.82
61484;BME280;47349;55.640;37.692;2022-10-16T10:26:36;100573.06;;;10.25;52.98
61484;BME280;47349;55.640;37.692;2022-10-16T10:31:24;100583.25;;;10.40;52.91
61484;BME280;47349;55.640;37.692;2022-10-16T10:34:44;100596.66;;;10.58;52.62
61484;BME280;47349;55.640;37.692;2022-10-16T10:38:54;100595.25;;;10.53;53.09
61484;BME280;47349;55.640;37.692;2022-10-16T10:50:25;100597.81;;;10.55;52.51
61484;BME280;47349;55.640;37.692;2022-10-16T11:02:00;100581.63;;;10.47;52.88
61484;BME280;47349;55.640;37.692;2022-10-16T11:09:07;100585.31;;;10.46;52.88
61484;BME280;47349;55.640;37.692;2022-10-16T11:12:36;100578.34;;;10.53;53.04
61484;BME280;47349;55.640;37.692;2022-10-16T11:16:44;100577.88;;;10.75;52.82
61484;BME280;47349;55.640;37.692;2022-10-16T11:21:11;100565.22;;;10.86;52.42
61484;BME280;47349;55.640;37.692;2022-10-16T11:25:17;100567.06;;;10.85;52.31
61484;BME280;47349;55.640;37.692;2022-10-16T11:29:16;100558.25;;;10.93;52.17
61484;BME280;47349;55.640;37.692;2022-10-16T11:36:38;100544.66;;;11.20;51.53
61484;BME280;47349;55.640;37.692;2022-10-16T11:39:44;100511.31;;;10.97;51.11
61484;BME280;47349;55.640;37.692;2022-10-16T11:42:54;100544.19;;;11.25;50.52
61484;BME280;47349;55.640;37.692;2022-10-16T11:46:10;100511.34;;;11.31;50.73
61484;BME280;47349;55.640;37.692;2022-10-16T11:49:41;100556.25;;;11.89;49.98
61484;BME280;47349;55.640;37.692;2022-10-16T11:56:36;100528.44;;;12.23;49.03
61484;BME280;47349;55.640;37.692;2022-10-16T12:00:26;100529.31;;;12.31;47.96
61484;BME280;47349;55.640;37.692;2022-10-16T12:09:42;100545.97;;;12.68;47.61
61484;BME280;47349;55.640;37.692;2022-10-16T12:12:53;100516.91;;;12.63;47.28
61484;BME280;47349;55.640;37.692;2022-10-16T12:17:01;100545.59;;;12.95;47.37
61484;BME280;47349;55.640;37.692;2022-10-16T12:23:47;100548.84;;;12.82;46.60
61484;BME280;47349;55.640;37.692;2022-10-16T12:30:26;100527.75;;;13.19;46.46
61484;BME280;47349;55.640;37.692;2022-10-16T12:33:57;100545.38;;;13.54;45.63
61484;BME280;47349;55.640;37.692;2022-10-16T12:40:32;100522.44;;;13.58;45.56
61484;BME280;47349;55.640;37.692;2022-10-16T12:43:47;100530.88;;;13.86;44.74
61484;BME280;47349;55.640;37.692;2022-10-16T12:46:39;100497.81;;;13.69;45.03
61484;BME280;47349;55.640;37.692;2022-10-16T12:50:37;100525.53;;;14.09;44.22
61484;BME280;47349;55.640;37.692;2022-10-16T12:53:29;100520.28;;;14.15;44.27
61484;BME280;47349;55.640;37.692;2022-10-16T13:00:21;100527.72;;;14.13;44.10
61484;BME280;47349;55.640;37.692;2022-10-16T13:06:45;100543.03;;;14.13;45.08
61484;BME280;47349;55.640;37.692;2022-10-16T13:10:14;100532.03;;;13.92;44.49
61484;BME280;47349;55.640;37.692;2022-10-16T13:13:52;100530.91;;;13.47;45.37
61484;BME280;47349;55.640;37.692;2022-10-16T13:17:09;100537.63;;;13.51;45.65
61484;BME280;47349;55.640;37.692;2022-10-16T13:20:29;100518.28;;;13.39;46.21
61484;BME280;47349;55.640;37.692;2022-10-16T13:29:32;100520.03;;;13.07;46.50
61484;BME280;47349;55.640;37.692;2022-10-16T13:32:39;100513.81;;;12.99;46.58
61484;BME280;47349;55.640;37.692;2022-10-16T13:35:54;100512.53;;;12.86;46.91
61484;BME280;47349;55.640;37.692;2022-10-16T13:39:44;100536.03;;;12.93;47.49
61484;BME280;47349;55.640;37.692;2022-10-16T14:46:08;100511.03;;;10.02;54.76
61484;BME280;47349;55.640;37.692;2022-10-16T14:50:11;100537.19;;;10.09;55.37
61484;BME280;47349;55.640;37.692;2022-10-16T14:54:14;100530.91;;;10.00;55.78
61484;BME280;47349;55.640;37.692;2022-10-16T14:58:14;100523.00;;;9.81;55.47
61484;BME280;47349;55.640;37.692;2022-10-16T15:01:44;100552.94;;;9.94;55.91
61484;BME280;47349;55.640;37.692;2022-10-16T15:04:26;100539.59;;;9.84;55.31
61484;BME280;47349;55.640;37.692;2022-10-16T15:07:07;100551.16;;;9.85;55.57
61484;BME280;47349;55.640;37.692;2022-10-16T15:09:50;100550.88;;;9.88;56.00
61484;BME280;47349;55.640;37.692;2022-10-16T15:12:34;100541.72;;;9.81;56.11
61484;BME280;47349;55.640;37.692;2022-10-16T15:15:32;100555.13;;;9.81;56.52
61484;BME280;47349;55.640;37.692;2022-10-16T15:18:13;100544.72;;;9.77;56.22
61484;BME280;47349;55.640;37.692;2022-10-16T15:21:01;100546.69;;;9.75;56.88
61484;BME280;47349;55.640;37.692;2022-10-16T15:23:43;100533.53;;;9.64;56.83
61484;BME280;47349;55.640;37.692;2022-10-16T15:26:27;100540.88;;;9.62;56.91
61484;BME280;47349;55.640;37.692;2022-10-16T15:29:10;100536.41;;;9.53;57.35
61484;BME280;47349;55.640;37.692;2022-10-16T15:31:51;100538.28;;;9.43;57.13
61484;BME280;47349;55.640;37.692;2022-10-16T15:34:33;100535.72;;;9.41;56.98
61484;BME280;47349;55.640;37.692;2022-10-16T15:37:14;100541.25;;;9.40;57.39
61484;BME280;47349;55.640;37.692;2022-10-16T15:39:56;100534.25;;;9.29;57.21
61484;BME280;47349;55.640;37.692;2022-10-16T15:42:41;100526.66;;;9.24;58.07
61484;BME280;47349;55.640;37.692;2022-10-16T15:45:23;100533.41;;;9.29;57.53
61484;BME280;47349;55.640;37.692;2022-10-16T15:48:08;100535.38;;;9.26;57.85
61484;BME280;47349;55.640;37.692;2022-10-16T15:50:52;100534.97;;;9.21;58.66
61484;BME280;47349;55.640;37.692;2022-10-16T15:53:34;100529.22;;;9.16;58.29
61484;BME280;47349;55.640;37.692;2022-10-16T15:56:23;100538.38;;;9.14;59.07
61484;BME280;47349;55.640;37.692;2022-10-16T15:59:30;100529.69;;;9.02;59.30
61484;BME280;47349;55.640;37.692;2022-10-16T16:02:15;100513.50;;;8.94;59.10
61484;BME280;47349;55.640;37.692;2022-10-16T16:04:56;100525.03;;;8.94;59.37
61484;BME280;47349;55.640;37.692;2022-10-16T16:07:39;100514.09;;;8.88;59.62
61484;BME280;47349;55.640;37.692;2022-10-16T16:10:20;100521.44;;;8.86;60.07
61484;BME280;47349;55.640;37.692;2022-10-16T16:13:11;100521.97;;;8.80;59.75
61484;BME280;47349;55.640;37.692;2022-10-16T16:15:54;100524.22;;;8.84;60.15
61484;BME280;47349;55.640;37.692;2022-10-16T16:18:55;100527.19;;;8.81;59.79
61484;BME280;47349;55.640;37.692;2022-10-16T16:21:39;100519.88;;;8.73;60.08
61484;BME280;47349;55.640;37.692;2022-10-16T16:24:23;100514.53;;;8.73;60.10
61484;BME280;47349;55.640;37.692;2022-10-16T16:27:04;100524.25;;;8.74;60.20
61484;BME280;47349;55.640;37.692;2022-10-16T16:29:47;100512.03;;;8.72;60.34
61484;BME280;47349;55.640;37.692;2022-10-16T16:32:29;100524.53;;;8.71;60.39
61484;BME280;47349;55.640;37.692;2022-10-16T16:35:12;100520.31;;;8.69;60.97
61484;BME280;47349;55.640;37.692;2022-10-16T16:37:58;100515.56;;;8.63;60.61
61484;BME280;47349;55.640;37.692;2022-10-16T16:40:29;100527.06;;;8.63;60.33
61484;BME280;47349;55.640;37.692;2022-10-16T16:43:10;100525.41;;;8.62;60.53
61484;BME280;47349;55.640;37.692;2022-10-16T16:45:52;100529.59;;;8.55;60.70
61484;BME280;47349;55.640;37.692;2022-10-16T16:48:34;100531.00;;;8.59;60.98
61484;BME280;47349;55.640;37.692;2022-10-16T16:51:20;100534.09;;;8.55;61.35
61484;BME280;47349;55.640;37.692;2022-10-16T16:54:28;100536.94;;;8.53;61.17
61484;BME280;47349;55.640;37.692;2022-10-16T16:57:12;100536.38;;;8.49;61.25
61484;BME280;47349;55.640;37.692;2022-10-16T16:59:56;100538.63;;;8.54;61.35
61484;BME280;47349;55.640;37.692;2022-10-16T17:02:42;100530.91;;;8.51;61.46
61484;BME280;47349;55.640;37.692;2022-10-16T17:05:28;100522.91;;;8.41;61.78
61484;BME280;47349;55.640;37.692;2022-10-16T17:08:13;100537.63;;;8.45;61.83
61484;BME280;47349;55.640;37.692;2022-10-16T17:10:56;100535.94;;;8.44;61.88
61484;BME280;47349;55.640;37.692;2022-10-16T17:13:38;100530.75;;;8.43;61.67
61484;BME280;47349;55.640;37.692;2022-10-16T17:16:21;100531.31;;;8.46;61.76
61484;BME280;47349;55.640;37.692;2022-10-16T17:19:15;100534.97;;;8.45;61.44
61484;BME280;47349;55.640;37.692;2022-10-16T17:21:57;100529.06;;;8.42;61.32
61484;BME280;47349;55.640;37.692;2022-10-16T17:24:40;100526.25;;;8.43;61.30
61484;BME280;47349;55.640;37.692;2022-10-16T17:27:21;100507.09;;;8.29;61.65
61484;BME280;47349;55.640;37.692;2022-10-16T17:30:11;100519.09;;;8.44;62.33
61484;BME280;47349;55.640;37.692;2022-10-16T17:32:55;100527.94;;;8.44;61.92
61484;BME280;47349;55.640;37.692;2022-10-16T17:38:19;100526.09;;;8.45;61.26
61484;BME280;47349;55.640;37.692;2022-10-16T17:41:24;100530.34;;;8.47;61.31
61484;BME280;47349;55.640;37.692;2022-10-16T17:44:12;100528.94;;;8.43;61.20
61484;BME280;47349;55.640;37.692;2022-10-16T17:47:47;100529.06;;;8.42;61.03
61484;BME280;47349;55.640;37.692;2022-10-16T17:50:42;100530.03;;;8.41;61.13
61484;BME280;47349;55.640;37.692;2022-10-16T17:53:28;100538.06;;;8.41;60.93
61484;BME280;47349;55.640;37.692;2022-10-16T17:56:12;100537.09;;;8.42;60.87
61484;BME280;47349;55.640;37.692;2022-10-16T17:58:42;100527.47;;;8.30;60.57
61484;BME280;47349;55.640;37.692;2022-10-16T18:01:28;100528.19;;;8.32;60.67
61484;BME280;47349;55.640;37.692;2022-10-16T18:04:14;100542.53;;;8.31;60.51
61484;BME280;47349;55.640;37.692;2022-10-16T18:06:55;100519.75;;;8.27;60.41
61484;BME280;47349;55.640;37.692;2022-10-16T18:09:26;100531.00;;;8.30;60.82
61484;BME280;47349;55.640;37.692;2022-10-16T18:12:00;100532.13;;;8.28;60.35
61484;BME280;47349;55.640;37.692;2022-10-16T18:14:42;100529.03;;;8.22;60.34
61484;BME280;47349;55.640;37.692;2022-10-16T18:17:27;100524.81;;;8.20;60.41
61484;BME280;47349;55.640;37.692;2022-10-16T18:20:11;100524.13;;;8.18;60.07
61484;BME280;47349;55.640;37.692;2022-10-16T18:23:47;100506.53;;;8.15;60.08
61484;BME280;47349;55.640;37.692;2022-10-16T18:28:05;100521.72;;;8.15;60.35
61484;BME280;47349;55.640;37.692;2022-10-16T18:43:37;100513.94;;;7.92;60.83
61484;BME280;47349;55.640;37.692;2022-10-16T18:46:22;100511.59;;;7.89;60.89
61484;BME280;47349;55.640;37.692;2022-10-16T18:49:06;100517.50;;;7.93;61.34
61484;BME280;47349;55.640;37.692;2022-10-16T18:51:52;100523.38;;;7.87;61.46
61484;BME280;47349;55.640;37.692;2022-10-16T18:54:44;100514.38;;;7.88;61.05
61484;BME280;47349;55.640;37.692;2022-10-16T18:57:49;100519.28;;;7.83;61.55
61484;BME280;47349;55.640;37.692;2022-10-16T19:00:32;100490.19;;;7.60;61.60
61484;BME280;47349;55.640;37.692;2022-10-16T19:03:13;100515.47;;;7.76;61.32
61484;BME280;47349;55.640;37.692;2022-10-16T19:06:01;100507.88;;;7.61;61.54
61484;BME280;47349;55.640;37.692;2022-10-16T19:08:45;100504.19;;;7.53;61.17
61484;BME280;47349;55.640;37.692;2022-10-16T19:11:28;100514.72;;;7.64;61.36
61484;BME280;47349;55.640;37.692;2022-10-16T19:14:13;100518.28;;;7.64;61.51
61484;BME280;47349;55.640;37.692;2022-10-16T19:16:55;100499.13;;;7.50;61.26
61484;BME280;47349;55.640;37.692;2022-10-16T19:19:24;100484.66;;;7.42;61.13
61484;BME280;47349;55.640;37.692;2022-10-16T19:22:07;100495.16;;;7.44;61.46
61484;BME280;47349;55.640;37.692;2022-10-16T19:24:53;100503.19;;;7.54;61.84
61484;BME280;47349;55.640;37.692;2022-10-16T19:27:36;100489.84;;;7.44;61.33
61484;BME280;47349;55.640;37.692;2022-10-16T19:30:19;100490.81;;;7.43;61.68
61484;BME280;47349;55.640;37.692;2022-10-16T19:33:03;100500.81;;;7.51;61.74
61484;BME280;47349;55.640;37.692;2022-10-16T19:35:44;100477.78;;;7.40;61.89
61484;BME280;47349;55.640;37.692;2022-10-16T19:38:27;100501.91;;;7.48;62.03
61484;BME280;47349;55.640;37.692;2022-10-16T19:41:16;100502.34;;;7.53;62.03
61484;BME280;47349;55.640;37.692;2022-10-16T19:44:03;100499.13;;;7.50;62.23
61484;BME280;47349;55.640;37.692;2022-10-16T19:46:45;100490.78;;;7.33;62.08
61484;BME280;47349;55.640;37.692;2022-10-16T19:49:29;100510.06;;;7.46;62.18
61484;BME280;47349;55.640;37.692;2022-10-16T19:52:10;100489.75;;;7.25;62.31
61484;BME280;47349;55.640;37.692;2022-10-16T19:54:54;100512.16;;;7.43;63.14
61484;BME280;47349;55.640;37.692;2022-10-16T19:57:38;100507.78;;;7.32;63.02
61484;BME280;47349;55.640;37.692;2022-10-16T20:00:19;100517.19;;;7.36;63.12
61484;BME280;47349;55.640;37.692;2022-10-16T20:03:01;100515.78;;;7.32;62.73
61484;BME280;47349;55.640;37.692;2022-10-16T20:06:01;100500.72;;;7.21;62.31
61484;BME280;47349;55.640;37.692;2022-10-16T20:08:34;100511.28;;;7.33;62.39
61484;BME280;47349;55.640;37.692;2022-10-16T20:11:19;100499.72;;;7.22;62.38
61484;BME280;47349;55.640;37.692;2022-10-16T20:14:01;100514.59;;;7.25;62.41
61484;BME280;47349;55.640;37.692;2022-10-16T20:16:43;100495.91;;;7.15;62.64
61484;BME280;47349;55.640;37.692;2022-10-16T20:19:24;100515.03;;;7.20;62.36
61484;BME280;47349;55.640;37.692;2022-10-16T20:22:05;100483.13;;;7.09;62.34
61484;BME280;47349;55.640;37.692;2022-10-16T20:24:47;100498.25;;;7.09;62.57
61484;BME280;47349;55.640;37.692;2022-10-16T20:27:28;100491.41;;;7.06;62.64
61484;BME280;47349;55.640;37.692;2022-10-16T20:30:10;100496.13;;;7.03;62.91
61484;BME280;47349;55.640;37.692;2022-10-16T20:32:40;100495.81;;;6.96;62.97
61484;BME280;47349;55.640;37.692;2022-10-16T20:35:16;100479.56;;;6.99;63.23
61484;BME280;47349;55.640;37.692;2022-10-16T20:37:58;100478.22;;;6.84;63.05
61484;BME280;47349;55.640;37.692;2022-10-16T20:40:25;100502.72;;;6.99;63.48
61484;BME280;47349;55.640;37.692;2022-10-16T20:43:09;100470.38;;;6.82;63.70
61484;BME280;47349;55.640;37.692;2022-10-16T20:46:00;100494.84;;;6.97;63.30
61484;BME280;47349;55.640;37.692;2022-10-16T20:48:43;100495.81;;;6.96;63.42
61484;BME280;47349;55.640;37.692;2022-10-16T20:51:26;100475.13;;;6.79;63.86
61484;BME280;47349;55.640;37.692;2022-10-16T20:54:10;100489.47;;;6.87;63.83
61484;BME280;47349;55.640;37.692;2022-10-16T20:56:52;100492.97;;;6.88;63.71
61484;BME280;47349;55.640;37.692;2022-10-16T20:59:34;100481.16;;;6.81;63.96
61484;BME280;47349;55.640;37.692;2022-10-16T21:02:15;100483.38;;;6.76;64.22
61484;BME280;47349;55.640;37.692;2022-10-16T21:04:56;100461.69;;;6.59;64.05
61484;BME280;47349;55.640;37.692;2022-10-16T21:07:38;100480.41;;;6.69;64.27
61484;BME280;47349;55.640;37.692;2022-10-16T21:10:20;100491.44;;;6.64;63.93
61484;BME280;47349;55.640;37.692;2022-10-16T21:13:02;100488.97;;;6.73;64.50
61484;BME280;47349;55.640;37.692;2022-10-16T21:15:43;100474.03;;;6.60;64.14
61484;BME280;47349;55.640;37.692;2022-10-16T21:18:13;100472.78;;;6.64;64.66
61484;BME280;47349;55.640;37.692;2022-10-16T21:20:54;100480.47;;;6.58;64.52
61484;BME280;47349;55.640;37.692;2022-10-16T21:23:35;100479.59;;;6.57;64.67
61484;BME280;47349;55.640;37.692;2022-10-16T21:26:17;100474.56;;;6.54;64.33
61484;BME280;47349;55.640;37.692;2022-10-16T21:29:01;100476.84;;;6.59;64.91
61484;BME280;47349;55.640;37.692;2022-10-16T21:31:43;100467.09;;;6.48;65.19
61484;BME280;47349;55.640;37.692;2022-10-16T21:34:25;100465.91;;;6.41;65.08
61484;BME280;47349;55.640;37.692;2022-10-16T21:37:08;100480.91;;;6.42;65.12
61484;BME280;47349;55.640;37.692;2022-10-16T21:39:50;100478.97;;;6.44;65.10
61484;BME280;47349;55.640;37.692;2022-10-16T21:42:31;100472.06;;;6.41;65.14
61484;BME280;47349;55.640;37.692;2022-10-16T21:45:00;100493.38;;;6.41;65.09
61484;BME280;47349;55.640;37.692;2022-10-16T21:47:32;100455.06;;;6.33;65.29
61484;BME280;47349;55.640;37.692;2022-10-16T21:50:13;100469.81;;;6.37;65.11